createdAt,value
2018-08-31T00:00:10.210Z,95959.00
2018-08-31T00:02:51.832Z,95963.00
2018-08-31T00:05:45.542Z,95963.00
2018-08-31T00:10:34.602Z,95963.00
2018-08-31T00:13:05.868Z,95953.00
2018-08-31T00:15:36.230Z,95951.00
2018-08-31T00:18:07.264Z,95953.00
2018-08-31T00:20:38.722Z,95941.00
2018-08-31T00:23:11.039Z,95951.00
2018-08-31T00:26:03.996Z,95956.00
2018-08-31T00:28:44.745Z,95961.00
2018-08-31T00:31:25.839Z,95955.00
2018-08-31T00:38:15.680Z,95952.00
2018-08-31T00:41:07.378Z,95962.00
2018-08-31T00:43:48.728Z,95967.00
2018-08-31T00:46:18.680Z,95965.00
2018-08-31T00:48:48.737Z,95959.00
2018-08-31T00:51:18.808Z,95955.00
2018-08-31T00:53:49.193Z,95959.00
2018-08-31T00:56:20.564Z,95960.00
2018-08-31T00:58:50.704Z,95961.00
2018-08-31T01:01:20.796Z,95956.00
2018-08-31T01:03:50.865Z,95958.00
2018-08-31T01:06:21.029Z,95957.00
2018-08-31T01:08:51.104Z,95957.00
2018-08-31T01:11:21.452Z,95954.00
2018-08-31T01:13:51.601Z,95949.00
2018-08-31T01:16:21.700Z,95947.00
2018-08-31T01:18:51.814Z,95954.00
2018-08-31T01:21:22.461Z,95953.00
2018-08-31T01:23:52.415Z,95946.00
2018-08-31T01:26:22.578Z,95939.00
2018-08-31T01:28:52.812Z,95937.00
2018-08-31T01:31:22.903Z,95935.00
2018-08-31T01:33:52.979Z,95940.00
2018-08-31T01:36:23.052Z,95944.00
2018-08-31T01:38:53.251Z,95953.00
2018-08-31T01:41:23.338Z,95947.00
2018-08-31T01:43:53.375Z,95940.00
2018-08-31T01:46:23.396Z,95943.00
2018-08-31T01:48:53.444Z,95930.00
2018-08-31T01:51:23.525Z,95930.00
2018-08-31T01:53:53.778Z,95934.00
2018-08-31T01:56:24.347Z,95934.00
2018-08-31T01:58:54.576Z,95937.00
2018-08-31T02:01:24.631Z,95940.00
2018-08-31T02:03:55.054Z,95946.00
2018-08-31T02:06:25.413Z,95951.00
2018-08-31T02:09:00.641Z,95951.00
2018-08-31T02:11:30.876Z,95951.00
2018-08-31T02:14:01.179Z,95950.00
2018-08-31T02:16:31.777Z,95946.00
2018-08-31T02:19:01.913Z,95938.00
2018-08-31T02:21:32.569Z,95942.00
2018-08-31T02:24:03.558Z,95947.00
2018-08-31T02:26:33.740Z,95949.00
2018-08-31T02:29:04.307Z,95948.00
2018-08-31T02:31:34.553Z,95950.00
2018-08-31T02:34:04.709Z,95949.00
2018-08-31T02:36:34.778Z,95951.00
2018-08-31T02:39:05.490Z,95952.00
2018-08-31T02:41:35.780Z,95956.00
2018-08-31T02:44:05.978Z,95948.00
2018-08-31T02:46:36.211Z,95948.00
2018-08-31T02:49:06.494Z,95942.00
2018-08-31T02:51:36.898Z,95940.00
2018-08-31T02:54:07.089Z,95938.00
2018-08-31T02:56:37.444Z,95940.00
2018-08-31T02:59:07.636Z,95935.00
2018-08-31T03:01:37.843Z,95933.00
2018-08-31T03:04:08.161Z,95932.00
2018-08-31T03:06:38.359Z,95936.00
2018-08-31T03:09:09.463Z,95935.00
2018-08-31T03:11:39.759Z,95939.00
2018-08-31T03:14:10.136Z,95938.00
2018-08-31T03:16:40.299Z,95931.00
2018-08-31T03:19:10.447Z,95933.00
2018-08-31T03:21:40.756Z,95925.00
2018-08-31T03:24:11.123Z,95923.00
2018-08-31T03:26:41.396Z,95921.00
2018-08-31T03:29:11.868Z,95927.00
2018-08-31T03:31:42.185Z,95923.00
2018-08-31T03:34:12.479Z,95921.00
2018-08-31T03:36:42.746Z,95914.00
2018-08-31T03:39:12.978Z,95911.00
2018-08-31T03:41:43.222Z,95912.00
2018-08-31T03:44:13.355Z,95919.00
2018-08-31T03:46:43.767Z,95923.00
2018-08-31T03:49:13.950Z,95935.00
2018-08-31T03:51:44.327Z,95926.00
2018-08-31T03:54:14.512Z,95921.00
2018-08-31T03:56:44.740Z,95919.00
2018-08-31T03:59:14.935Z,95921.00
2018-08-31T04:01:45.184Z,95924.00
2018-08-31T04:04:16.132Z,95928.00
2018-08-31T04:06:46.392Z,95933.00
2018-08-31T04:09:16.577Z,95930.00
2018-08-31T04:11:46.780Z,95929.00
2018-08-31T04:14:17.192Z,95930.00
2018-08-31T04:16:47.438Z,95932.00
2018-08-31T04:19:18.624Z,95924.00
2018-08-31T04:21:52.578Z,95922.00
2018-08-31T04:24:25.879Z,95917.00
2018-08-31T04:27:05.991Z,95919.00
2018-08-31T04:29:51.984Z,95924.00
2018-08-31T04:32:38.585Z,95926.00
2018-08-31T04:35:21.103Z,95928.00
2018-08-31T04:37:53.007Z,95921.00
2018-08-31T04:40:39.868Z,95923.00
2018-08-31T04:43:17.156Z,95927.00
2018-08-31T04:45:59.567Z,95922.00
2018-08-31T04:48:49.331Z,95928.00
2018-08-31T04:51:37.343Z,95926.00
2018-08-31T04:54:11.392Z,95941.00
2018-08-31T04:56:44.684Z,95946.00
2018-08-31T04:59:17.529Z,95944.00
2018-08-31T05:01:49.624Z,95945.00
2018-08-31T05:04:19.743Z,95948.00
2018-08-31T05:06:50.372Z,95951.00
2018-08-31T05:09:20.571Z,95952.00
2018-08-31T05:11:52.049Z,95947.00
2018-08-31T05:14:22.475Z,95947.00
2018-08-31T05:16:52.755Z,95951.00
2018-08-31T05:19:23.016Z,95943.00
2018-08-31T05:22:01.298Z,95952.00
2018-08-31T05:24:36.171Z,95954.00
2018-08-31T05:27:11.371Z,95951.00
2018-08-31T05:29:42.444Z,95949.00
2018-08-31T05:32:12.667Z,95954.00
2018-08-31T05:34:42.928Z,95958.00
2018-08-31T05:37:14.219Z,95959.00
2018-08-31T05:39:44.478Z,95959.00
2018-08-31T05:42:17.093Z,95951.00
2018-08-31T05:44:47.295Z,95951.00
2018-08-31T05:47:17.420Z,95943.00
2018-08-31T05:49:47.504Z,95943.00
2018-08-31T05:52:17.768Z,95944.00
2018-08-31T05:54:47.919Z,95946.00
2018-08-31T05:57:18.118Z,95952.00
2018-08-31T05:59:48.363Z,95945.00
2018-08-31T06:02:19.978Z,95951.00
2018-08-31T06:04:50.567Z,95950.00
2018-08-31T06:09:56.031Z,95943.00
2018-08-31T06:12:26.343Z,95938.00
2018-08-31T06:14:56.529Z,95939.00
2018-08-31T06:17:27.469Z,95949.00
2018-08-31T06:19:57.929Z,95956.00
2018-08-31T06:22:28.360Z,95958.00
2018-08-31T06:24:58.682Z,95958.00
2018-08-31T06:27:28.925Z,95954.00
2018-08-31T06:29:59.127Z,95953.00
2018-08-31T06:32:29.205Z,95951.00
2018-08-31T06:34:59.411Z,95948.00
2018-08-31T06:37:29.895Z,95940.00
2018-08-31T06:40:00.542Z,95936.00
2018-08-31T06:42:31.126Z,95938.00
2018-08-31T06:45:01.331Z,95944.00
2018-08-31T06:47:32.520Z,95940.00
2018-08-31T06:50:03.078Z,95940.00
2018-08-31T06:52:33.483Z,95934.00
2018-08-31T06:55:04.403Z,95938.00
2018-08-31T06:57:34.963Z,95939.00
2018-08-31T07:00:10.631Z,95942.00
2018-08-31T07:02:40.844Z,95940.00
2018-08-31T07:05:13.256Z,95938.00
2018-08-31T07:07:44.058Z,95940.00
2018-08-31T07:10:14.231Z,95935.00
2018-08-31T07:12:44.327Z,95933.00
2018-08-31T07:15:14.671Z,95939.00
2018-08-31T07:17:45.333Z,95942.00
2018-08-31T07:20:17.352Z,95950.00
2018-08-31T07:22:47.630Z,95959.00
2018-08-31T07:25:17.816Z,95951.00
2018-08-31T07:27:48.384Z,95944.00
2018-08-31T07:30:19.969Z,95946.00
2018-08-31T07:32:50.195Z,95953.00
2018-08-31T07:35:22.879Z,95952.00
2018-08-31T07:37:53.126Z,95962.00
2018-08-31T07:40:23.351Z,95966.00
2018-08-31T07:42:53.583Z,95970.00
2018-08-31T07:45:24.195Z,95962.00
2018-08-31T07:47:54.457Z,95961.00
2018-08-31T07:50:28.085Z,95968.00
2018-08-31T07:52:59.684Z,95979.00
2018-08-31T07:55:29.886Z,95980.00
2018-08-31T07:58:02.986Z,95976.00
2018-08-31T08:00:33.301Z,95973.00
2018-08-31T08:03:05.866Z,95975.00
2018-08-31T08:05:36.184Z,95974.00
2018-08-31T08:08:08.444Z,95969.00
2018-08-31T08:10:38.753Z,95977.00
2018-08-31T08:13:10.357Z,95976.00
2018-08-31T08:15:40.706Z,95966.00
2018-08-31T08:18:12.264Z,95965.00
2018-08-31T08:20:42.564Z,95964.00
2018-08-31T08:23:13.623Z,95969.00
2018-08-31T08:25:43.906Z,95965.00
2018-08-31T08:28:14.209Z,95965.00
2018-08-31T08:30:45.072Z,95969.00
2018-08-31T08:33:15.351Z,95977.00
2018-08-31T08:35:45.615Z,95975.00
2018-08-31T08:38:16.469Z,95972.00
2018-08-31T08:40:46.576Z,95975.00
2018-08-31T08:43:16.934Z,95976.00
2018-08-31T08:45:47.119Z,95978.00
2018-08-31T08:48:17.256Z,95983.00
2018-08-31T08:50:49.301Z,95989.00
2018-08-31T08:53:21.251Z,95992.00
2018-08-31T08:55:51.388Z,95994.00
2018-08-31T08:58:21.638Z,95984.00
2018-08-31T09:00:51.763Z,95987.00
2018-08-31T09:03:22.627Z,95985.00
2018-08-31T09:05:52.900Z,95984.00
2018-08-31T09:08:23.095Z,95989.00
2018-08-31T09:10:53.392Z,95990.00
2018-08-31T09:13:23.634Z,95995.00
2018-08-31T09:15:53.888Z,95996.00
2018-08-31T09:18:28.590Z,95995.00
2018-08-31T09:20:59.129Z,95998.00
2018-08-31T09:23:29.394Z,96001.00
2018-08-31T09:26:02.053Z,95999.00
2018-08-31T09:28:32.334Z,96000.00
2018-08-31T09:31:03.745Z,96004.00
2018-08-31T09:33:34.055Z,96005.00
2018-08-31T09:36:04.214Z,96006.00
2018-08-31T09:38:34.492Z,96004.00
2018-08-31T09:41:05.323Z,95999.00
2018-08-31T09:43:36.412Z,95999.00
2018-08-31T09:46:06.979Z,95997.00
2018-08-31T09:48:37.050Z,95993.00
2018-08-31T09:51:07.256Z,95987.00
2018-08-31T09:53:37.469Z,95983.00
2018-08-31T09:56:07.723Z,95983.00
2018-08-31T09:58:37.959Z,95979.00
2018-08-31T10:04:03.477Z,95972.00
2018-08-31T10:06:38.811Z,95961.00
2018-08-31T10:09:10.486Z,95961.00
2018-08-31T10:11:40.573Z,95967.00
2018-08-31T10:14:11.340Z,95962.00
2018-08-31T10:16:41.577Z,95962.00
2018-08-31T10:19:13.089Z,95966.00
2018-08-31T10:21:43.437Z,95963.00
2018-08-31T10:24:13.943Z,95973.00
2018-08-31T10:26:44.207Z,95967.00
2018-08-31T10:29:14.428Z,95970.00
2018-08-31T10:31:44.759Z,95963.00
2018-08-31T10:34:16.004Z,95957.00
2018-08-31T10:36:46.073Z,95957.00
2018-08-31T10:39:16.211Z,95954.00
2018-08-31T10:41:46.409Z,95944.00
2018-08-31T10:44:16.548Z,95936.00
2018-08-31T10:46:46.593Z,95945.00
2018-08-31T10:49:16.877Z,95937.00
2018-08-31T10:51:47.226Z,95934.00
2018-08-31T10:54:17.567Z,95931.00
2018-08-31T10:56:47.864Z,95924.00
2018-08-31T10:59:18.492Z,95924.00
2018-08-31T11:01:50.276Z,95923.00
2018-08-31T11:04:20.608Z,95927.00
2018-08-31T11:06:50.818Z,95924.00
2018-08-31T11:09:21.052Z,95924.00
2018-08-31T11:11:51.356Z,95924.00
2018-08-31T11:14:21.708Z,95921.00
2018-08-31T11:16:51.946Z,95924.00
2018-08-31T11:19:22.475Z,95926.00
2018-08-31T11:21:52.806Z,95930.00
2018-08-31T11:24:23.168Z,95929.00
2018-08-31T11:26:53.337Z,95932.00
2018-08-31T11:29:23.812Z,95934.00
2018-08-31T11:31:54.478Z,95926.00
2018-08-31T11:34:24.823Z,95925.00
2018-08-31T11:36:55.247Z,95926.00
2018-08-31T11:39:25.406Z,95929.00
2018-08-31T11:41:55.515Z,95927.00
2018-08-31T11:44:25.837Z,95935.00
2018-08-31T11:46:56.065Z,95934.00
2018-08-31T11:49:26.581Z,95937.00
2018-08-31T11:51:56.828Z,95942.00
2018-08-31T11:54:27.419Z,95937.00
2018-08-31T11:56:57.669Z,95933.00
2018-08-31T11:59:27.913Z,95932.00
2018-08-31T12:01:58.181Z,95936.00
2018-08-31T12:04:28.503Z,95937.00
2018-08-31T12:06:58.867Z,95937.00
2018-08-31T12:09:29.096Z,95936.00
2018-08-31T12:11:59.455Z,95934.00
2018-08-31T12:14:29.947Z,95924.00
2018-08-31T12:17:00.202Z,95927.00
2018-08-31T12:19:30.514Z,95930.00
2018-08-31T12:22:01.857Z,95925.00
2018-08-31T12:24:32.916Z,95925.00
2018-08-31T12:27:03.318Z,95922.00
2018-08-31T12:29:33.914Z,95921.00
2018-08-31T12:32:05.377Z,95920.00
2018-08-31T12:34:36.961Z,95917.00
2018-08-31T12:37:07.217Z,95914.00
2018-08-31T12:39:37.471Z,95913.00
2018-08-31T12:42:07.786Z,95913.00
2018-08-31T12:44:38.056Z,95908.00
2018-08-31T12:47:08.419Z,95905.00
2018-08-31T12:49:38.698Z,95907.00
2018-08-31T12:52:09.004Z,95909.00
2018-08-31T12:54:39.131Z,95905.00
2018-08-31T12:57:09.295Z,95899.00
2018-08-31T12:59:39.696Z,95900.00
2018-08-31T13:02:10.041Z,95902.00
2018-08-31T13:04:40.332Z,95900.00
2018-08-31T13:07:11.105Z,95903.00
2018-08-31T13:09:41.354Z,95893.00
2018-08-31T13:12:11.744Z,95893.00
2018-08-31T13:14:42.054Z,95903.00
2018-08-31T13:17:12.426Z,95899.00
2018-08-31T13:19:42.685Z,95905.00
2018-08-31T13:22:12.962Z,95900.00
2018-08-31T13:24:43.262Z,95903.00
2018-08-31T13:27:13.641Z,95901.00
2018-08-31T13:29:44.057Z,95898.00
2018-08-31T13:32:14.613Z,95897.00
2018-08-31T13:34:44.770Z,95892.00
2018-08-31T13:37:15.193Z,95893.00
2018-08-31T13:39:45.364Z,95896.00
2018-08-31T13:42:15.562Z,95895.00
2018-08-31T13:44:46.000Z,95891.00
2018-08-31T13:47:16.410Z,95894.00
2018-08-31T13:49:46.740Z,95892.00
2018-08-31T13:52:17.037Z,95893.00
2018-08-31T13:54:47.211Z,95900.00
2018-08-31T13:57:17.540Z,95897.00
2018-08-31T13:59:47.827Z,95897.00
2018-08-31T14:02:18.130Z,95899.00
2018-08-31T14:04:48.308Z,95898.00
2018-08-31T14:07:18.451Z,95897.00
2018-08-31T14:09:48.855Z,95898.00
2018-08-31T14:12:19.481Z,95900.00
2018-08-31T14:14:49.644Z,95901.00
2018-08-31T14:17:19.778Z,95907.00
2018-08-31T14:19:50.569Z,95909.00
2018-08-31T14:22:21.008Z,95908.00
2018-08-31T14:24:51.480Z,95904.00
2018-08-31T14:27:21.776Z,95907.00
2018-08-31T14:29:52.105Z,95907.00
2018-08-31T14:32:22.472Z,95906.00
2018-08-31T14:34:52.904Z,95913.00
2018-08-31T14:37:23.398Z,95912.00
2018-08-31T14:39:53.958Z,95910.00
2018-08-31T14:42:24.591Z,95912.00
2018-08-31T14:44:55.089Z,95907.00
2018-08-31T14:47:25.580Z,95909.00
2018-08-31T14:49:56.774Z,95913.00
2018-08-31T14:52:26.850Z,95912.00
2018-08-31T14:54:57.259Z,95908.00
2018-08-31T14:57:27.526Z,95902.00
2018-08-31T15:00:03.403Z,95904.00
2018-08-31T15:02:34.216Z,95903.00
2018-08-31T15:05:04.525Z,95900.00
2018-08-31T15:07:34.725Z,95902.00
2018-08-31T15:10:05.127Z,95900.00
2018-08-31T15:12:35.512Z,95899.00
2018-08-31T15:15:07.006Z,95898.00
2018-08-31T15:17:37.106Z,95898.00
2018-08-31T15:20:07.737Z,95897.00
2018-08-31T15:22:38.100Z,95892.00
2018-08-31T15:25:08.530Z,95888.00
2018-08-31T15:27:38.983Z,95889.00
2018-08-31T15:30:09.724Z,95892.00
2018-08-31T15:32:40.240Z,95894.00
2018-08-31T15:35:10.285Z,95894.00
2018-08-31T15:37:40.730Z,95896.00
2018-08-31T15:40:10.752Z,95895.00
2018-08-31T15:42:41.424Z,95892.00
2018-08-31T15:45:12.404Z,95892.00
2018-08-31T15:47:43.563Z,95892.00
2018-08-31T15:50:13.847Z,95890.00
2018-08-31T15:52:44.042Z,95892.00
2018-08-31T15:55:14.220Z,95890.00
2018-08-31T15:57:44.348Z,95891.00
2018-08-31T16:00:15.457Z,95891.00
2018-08-31T16:02:45.696Z,95898.00
2018-08-31T16:05:19.656Z,95891.00
2018-08-31T16:07:50.035Z,95898.00
2018-08-31T16:10:20.276Z,95899.00
2018-08-31T16:12:50.570Z,95892.00
2018-08-31T16:15:21.093Z,95894.00
2018-08-31T16:17:51.435Z,95893.00
2018-08-31T16:20:22.791Z,95894.00
2018-08-31T16:22:53.351Z,95895.00
2018-08-31T16:25:33.999Z,95896.00
2018-08-31T16:28:07.907Z,95893.00
2018-08-31T16:30:38.678Z,95894.00
2018-08-31T16:33:10.672Z,95901.00
2018-08-31T16:35:41.028Z,95902.00
2018-08-31T16:38:12.258Z,95899.00
2018-08-31T16:40:42.513Z,95898.00
2018-08-31T16:43:23.062Z,95896.00
2018-08-31T16:45:54.247Z,95897.00
2018-08-31T16:48:25.638Z,95900.00
2018-08-31T16:50:56.594Z,95895.00
2018-08-31T16:53:26.977Z,95898.00
2018-08-31T16:55:57.353Z,95899.00
2018-08-31T16:58:28.212Z,95893.00
2018-08-31T17:00:58.748Z,95895.00
2018-08-31T17:03:30.523Z,95892.00
2018-08-31T17:06:00.890Z,95893.00
2018-08-31T17:08:31.720Z,95901.00
2018-08-31T17:11:02.352Z,95908.00
2018-08-31T17:13:32.869Z,95912.00
2018-08-31T17:16:03.551Z,95916.00
2018-08-31T17:18:34.118Z,95912.00
2018-08-31T17:21:04.931Z,95914.00
2018-08-31T17:23:35.604Z,95908.00
2018-08-31T17:26:05.810Z,95912.00
2018-08-31T17:28:41.229Z,95915.00
2018-08-31T17:31:16.492Z,95922.00
2018-08-31T17:33:52.144Z,95922.00
2018-08-31T17:36:27.372Z,95928.00
2018-08-31T17:38:57.829Z,95926.00
2018-08-31T17:41:28.473Z,95933.00
2018-08-31T17:43:58.772Z,95936.00
2018-08-31T17:46:30.225Z,95935.00
2018-08-31T17:49:00.615Z,95939.00
2018-08-31T17:51:31.085Z,95944.00
2018-08-31T17:54:01.473Z,95947.00
2018-08-31T17:56:31.952Z,95945.00
2018-08-31T17:59:02.295Z,95954.00
2018-08-31T18:01:33.291Z,95959.00
2018-08-31T18:04:04.352Z,95957.00
2018-08-31T18:06:34.822Z,95966.00
2018-08-31T18:09:08.043Z,95965.00
2018-08-31T18:11:41.393Z,95967.00
2018-08-31T18:14:12.699Z,95969.00
2018-08-31T18:16:42.947Z,95975.00
2018-08-31T18:19:13.008Z,95972.00
2018-08-31T18:21:43.213Z,95978.00
2018-08-31T18:24:13.779Z,95986.00
2018-08-31T18:26:44.499Z,95993.00
2018-08-31T18:29:14.992Z,95991.00
2018-08-31T18:31:45.465Z,95988.00
2018-08-31T18:34:15.606Z,95989.00
2018-08-31T18:36:46.103Z,95992.00
2018-08-31T18:39:16.278Z,95993.00
2018-08-31T18:41:46.524Z,95996.00
2018-08-31T18:44:16.833Z,96003.00
2018-08-31T18:46:47.162Z,96001.00
2018-08-31T18:49:18.416Z,96002.00
2018-08-31T18:51:53.648Z,96007.00
2018-08-31T18:54:24.532Z,96009.00
2018-08-31T18:56:54.880Z,96012.00
2018-08-31T18:59:25.353Z,96007.00
2018-08-31T19:01:56.435Z,96013.00
2018-08-31T19:04:28.075Z,96015.00
2018-08-31T19:06:58.310Z,96018.00
2018-08-31T19:09:30.351Z,96013.00
2018-08-31T19:12:01.582Z,96012.00
2018-08-31T19:14:34.298Z,96000.00
2018-08-31T19:17:04.593Z,96007.00
2018-08-31T19:19:35.555Z,96019.00
2018-08-31T19:22:07.534Z,96025.00
2018-08-31T19:24:37.658Z,96029.00
2018-08-31T19:27:09.151Z,96024.00
2018-08-31T19:29:39.546Z,96020.00
2018-08-31T19:32:09.783Z,96018.00
2018-08-31T19:34:41.671Z,96027.00
2018-08-31T19:37:11.886Z,96017.00
2018-08-31T19:39:42.193Z,96020.00
2018-08-31T19:42:12.562Z,96021.00
2018-08-31T19:44:42.820Z,96027.00
2018-08-31T19:47:13.096Z,96028.00
2018-08-31T19:49:43.422Z,96031.00
2018-08-31T19:52:14.865Z,96025.00
2018-08-31T19:54:45.237Z,96023.00
2018-08-31T19:57:15.393Z,96020.00
2018-08-31T19:59:45.745Z,96016.00
2018-08-31T20:02:17.610Z,96018.00
2018-08-31T20:04:48.398Z,96019.00
2018-08-31T20:07:18.806Z,96025.00
2018-08-31T20:09:51.256Z,96018.00
2018-08-31T20:12:21.551Z,96025.00
2018-08-31T20:14:52.133Z,96028.00
2018-08-31T20:17:22.709Z,96035.00
2018-08-31T20:19:53.973Z,96040.00
2018-08-31T20:22:24.561Z,96038.00
2018-08-31T20:24:55.265Z,96035.00
2018-08-31T20:27:26.305Z,96038.00
2018-08-31T20:29:57.929Z,96039.00
2018-08-31T20:32:28.420Z,96042.00
2018-08-31T20:35:00.727Z,96042.00
2018-08-31T20:37:31.217Z,96041.00
2018-08-31T20:40:02.722Z,96043.00
2018-08-31T20:42:33.207Z,96042.00
2018-08-31T20:45:04.389Z,96044.00
2018-08-31T20:47:35.145Z,96047.00
2018-08-31T20:50:05.704Z,96051.00
2018-08-31T20:52:36.092Z,96054.00
2018-08-31T20:55:07.590Z,96063.00
2018-08-31T20:57:38.697Z,96070.00
2018-08-31T21:00:10.350Z,96074.00
2018-08-31T21:05:37.980Z,96070.00
2018-08-31T21:08:08.954Z,96068.00
2018-08-31T21:10:39.137Z,96069.00
2018-08-31T21:13:10.323Z,96065.00
2018-08-31T21:15:40.475Z,96063.00
2018-08-31T21:18:10.969Z,96066.00
2018-08-31T21:20:41.620Z,96069.00
2018-08-31T21:23:13.194Z,96073.00
2018-08-31T21:25:44.821Z,96074.00
2018-08-31T21:28:15.627Z,96075.00
2018-08-31T21:30:45.875Z,96077.00
2018-08-31T21:33:16.211Z,96082.00
2018-08-31T21:35:46.928Z,96084.00
2018-08-31T21:38:17.386Z,96083.00
2018-08-31T21:40:47.585Z,96082.00
2018-08-31T21:43:17.798Z,96078.00
2018-08-31T21:45:48.323Z,96076.00
2018-08-31T21:48:18.689Z,96077.00
2018-08-31T21:50:49.128Z,96079.00
2018-08-31T21:53:19.372Z,96079.00
2018-08-31T21:55:49.665Z,96080.00
2018-08-31T21:58:20.139Z,96078.00
2018-08-31T22:00:50.417Z,96080.00
2018-08-31T22:03:20.731Z,96083.00
2018-08-31T22:05:52.237Z,96083.00
2018-08-31T22:08:22.518Z,96080.00
2018-08-31T22:10:52.781Z,96074.00
2018-08-31T22:13:23.290Z,96077.00
2018-08-31T22:15:53.672Z,96076.00
2018-08-31T22:18:24.177Z,96079.00
2018-08-31T22:20:54.420Z,96074.00
2018-08-31T22:23:24.813Z,96074.00
2018-08-31T22:25:56.004Z,96071.00
2018-08-31T22:28:26.361Z,96070.00
2018-08-31T22:30:57.464Z,96067.00
2018-08-31T22:33:28.810Z,96062.00
2018-08-31T22:35:59.016Z,96060.00
2018-08-31T22:38:30.244Z,96060.00
2018-08-31T22:41:01.754Z,96061.00
2018-08-31T22:43:37.283Z,96067.00
2018-08-31T22:46:07.397Z,96068.00
2018-08-31T22:48:38.703Z,96073.00
2018-08-31T22:54:06.020Z,96081.00
2018-08-31T22:56:38.455Z,96077.00
2018-08-31T22:59:08.889Z,96078.00
2018-08-31T23:01:39.193Z,96082.00
2018-08-31T23:04:09.530Z,96077.00
2018-08-31T23:06:40.862Z,96084.00
2018-08-31T23:09:11.067Z,96086.00
2018-08-31T23:11:41.943Z,96085.00
2018-08-31T23:14:12.144Z,96095.00
2018-08-31T23:16:42.541Z,96094.00
2018-08-31T23:19:13.078Z,96091.00
2018-08-31T23:21:43.329Z,96089.00
2018-08-31T23:24:14.227Z,96086.00
2018-08-31T23:26:45.580Z,96093.00
2018-08-31T23:29:16.151Z,96094.00
2018-08-31T23:31:46.269Z,96093.00
2018-08-31T23:34:16.574Z,96085.00
2018-08-31T23:36:47.042Z,96081.00
2018-08-31T23:39:17.279Z,96075.00
2018-08-31T23:41:47.544Z,96075.00
2018-08-31T23:44:17.744Z,96069.00
2018-08-31T23:46:47.912Z,96063.00
2018-08-31T23:49:18.384Z,96064.00
2018-08-31T23:51:48.508Z,96071.00
2018-08-31T23:54:19.009Z,96070.00
2018-08-31T23:56:49.105Z,96059.00
2018-08-31T23:59:19.746Z,96048.00
